createdAt,value
2018-09-13T00:00:28.934Z,1006.0
2018-09-13T00:01:30.293Z,1006.0
2018-09-13T00:02:31.658Z,1006.0
2018-09-13T00:03:33.031Z,1005.9
2018-09-13T00:04:34.392Z,1005.9
2018-09-13T00:05:35.750Z,1005.9
2018-09-13T00:06:37.113Z,1005.9
2018-09-13T00:07:38.485Z,1006.0
2018-09-13T00:08:39.844Z,1005.9
2018-09-13T00:09:41.198Z,1005.9
2018-09-13T00:10:42.562Z,1005.8
2018-09-13T00:11:43.943Z,1005.8
2018-09-13T00:12:45.318Z,1005.7
2018-09-13T00:13:46.660Z,1005.7
2018-09-13T00:14:48.025Z,1005.7
2018-09-13T00:15:49.388Z,1005.7
2018-09-13T00:16:50.761Z,1005.6
2018-09-13T00:17:52.112Z,1005.6
2018-09-13T00:18:53.483Z,1005.6
2018-09-13T00:19:54.837Z,1005.5
2018-09-13T00:20:56.194Z,1005.6
2018-09-13T00:21:57.550Z,1005.6
2018-09-13T00:22:58.920Z,1005.6
2018-09-13T00:24:00.278Z,1005.7
2018-09-13T00:25:01.641Z,1005.7
2018-09-13T00:26:02.999Z,1005.8
2018-09-13T00:27:04.367Z,1005.8
2018-09-13T00:28:05.722Z,1005.8
2018-09-13T00:29:07.083Z,1005.8
2018-09-13T00:30:08.459Z,1005.8
2018-09-13T00:31:09.819Z,1005.7
2018-09-13T00:32:11.186Z,1005.7
2018-09-13T00:33:12.544Z,1005.7
2018-09-13T00:34:13.897Z,1005.6
2018-09-13T00:35:15.282Z,1005.7
2018-09-13T00:36:16.640Z,1005.7
2018-09-13T00:37:18.014Z,1005.6
2018-09-13T00:38:19.374Z,1005.6
2018-09-13T00:39:20.746Z,1005.6
2018-09-13T00:40:22.094Z,1005.5
2018-09-13T00:41:23.453Z,1005.5
2018-09-13T00:42:24.814Z,1005.6
2018-09-13T00:43:26.167Z,1005.6
2018-09-13T00:44:27.533Z,1005.6
2018-09-13T00:45:28.897Z,1005.7
2018-09-13T00:46:30.259Z,1005.7
2018-09-13T00:47:31.608Z,1005.7
2018-09-13T00:48:32.973Z,1005.6
2018-09-13T00:49:34.348Z,1005.6
2018-09-13T00:50:35.725Z,1005.6
2018-09-13T00:51:37.094Z,1005.7
2018-09-13T00:52:38.483Z,1005.6
2018-09-13T00:53:39.852Z,1005.6
2018-09-13T00:54:41.207Z,1005.7
2018-09-13T00:55:42.572Z,1005.7
2018-09-13T00:56:43.937Z,1005.6
2018-09-13T00:57:45.301Z,1005.6
2018-09-13T00:58:46.655Z,1005.6
2018-09-13T00:59:48.013Z,1005.6
2018-09-13T01:00:49.377Z,1005.6
2018-09-13T01:01:50.737Z,1005.5
2018-09-13T01:02:52.094Z,1005.5
2018-09-13T01:03:53.452Z,1005.5
2018-09-13T01:04:54.851Z,1005.6
2018-09-13T01:05:56.217Z,1005.6
2018-09-13T01:06:57.579Z,1005.6
2018-09-13T01:07:58.933Z,1005.6
2018-09-13T01:09:00.290Z,1005.6
2018-09-13T01:10:01.645Z,1005.6
2018-09-13T01:11:03.008Z,1005.6
2018-09-13T01:12:04.371Z,1005.6
2018-09-13T01:13:05.735Z,1005.6
2018-09-13T01:14:07.093Z,1005.6
2018-09-13T01:15:08.460Z,1005.5
2018-09-13T01:16:09.830Z,1005.5
2018-09-13T01:17:11.197Z,1005.5
2018-09-13T01:18:12.552Z,1005.4
2018-09-13T01:19:13.919Z,1005.5
2018-09-13T01:20:54.800Z,1005.4
2018-09-13T01:21:56.153Z,1005.4
2018-09-13T01:22:57.514Z,1005.4
2018-09-13T01:23:58.884Z,1005.4
2018-09-13T01:25:00.234Z,1005.4
2018-09-13T01:26:01.591Z,1005.4
2018-09-13T01:27:02.963Z,1005.4
2018-09-13T01:28:04.313Z,1005.4
2018-09-13T01:29:05.677Z,1005.4
2018-09-13T01:30:07.039Z,1005.4
2018-09-13T01:31:08.399Z,1005.4
2018-09-13T01:32:09.764Z,1005.4
2018-09-13T01:33:11.125Z,1005.3
2018-09-13T01:34:12.493Z,1005.3
2018-09-13T01:35:13.846Z,1005.3
2018-09-13T01:36:15.212Z,1005.3
2018-09-13T01:37:16.564Z,1005.3
2018-09-13T01:38:17.924Z,1005.3
2018-09-13T01:39:19.290Z,1005.3
2018-09-13T01:40:20.654Z,1005.3
2018-09-13T01:41:22.016Z,1005.3
2018-09-13T01:42:23.379Z,1005.4
2018-09-13T01:43:24.735Z,1005.4
2018-09-13T01:44:26.090Z,1005.4
2018-09-13T01:45:27.449Z,1005.3
2018-09-13T01:46:28.815Z,1005.3
2018-09-13T01:47:30.181Z,1005.3
2018-09-13T01:48:31.535Z,1005.3
2018-09-13T01:49:32.903Z,1005.2
2018-09-13T01:50:34.266Z,1005.2
2018-09-13T01:51:35.635Z,1005.2
2018-09-13T01:52:36.983Z,1005.2
2018-09-13T01:53:38.341Z,1005.3
2018-09-13T01:54:39.709Z,1005.3
2018-09-13T01:55:41.065Z,1005.3
2018-09-13T01:56:42.433Z,1005.3
2018-09-13T01:57:43.784Z,1005.3
2018-09-13T01:58:45.143Z,1005.3
2018-09-13T01:59:46.505Z,1005.3
2018-09-13T02:00:47.855Z,1005.3
2018-09-13T02:01:49.226Z,1005.3
2018-09-13T02:02:50.584Z,1005.3
2018-09-13T02:03:51.949Z,1005.3
2018-09-13T02:04:53.314Z,1005.3
2018-09-13T02:05:54.666Z,1005.2
2018-09-13T02:06:56.034Z,1005.2
2018-09-13T02:07:57.400Z,1005.2
2018-09-13T02:08:58.754Z,1005.3
2018-09-13T02:10:00.121Z,1005.3
2018-09-13T02:11:01.480Z,1005.4
2018-09-13T02:12:02.834Z,1005.5
2018-09-13T02:13:04.200Z,1005.4
2018-09-13T02:14:05.558Z,1005.5
2018-09-13T02:15:06.928Z,1005.5
2018-09-13T02:16:08.283Z,1005.5
2018-09-13T02:17:09.636Z,1005.5
2018-09-13T02:18:10.995Z,1005.5
2018-09-13T02:19:12.351Z,1005.5
2018-09-13T02:20:13.711Z,1005.5
2018-09-13T02:21:15.070Z,1005.6
2018-09-13T02:22:16.438Z,1005.5
2018-09-13T02:23:17.790Z,1005.6
2018-09-13T02:24:19.165Z,1005.5
2018-09-13T02:25:20.519Z,1005.5
2018-09-13T02:26:21.875Z,1005.5
2018-09-13T02:27:23.237Z,1005.4
2018-09-13T02:28:24.599Z,1005.4
2018-09-13T02:29:25.963Z,1005.4
2018-09-13T02:30:27.321Z,1005.4
2018-09-13T02:31:28.674Z,1005.5
2018-09-13T02:32:30.039Z,1005.4
2018-09-13T02:33:31.398Z,1005.5
2018-09-13T02:34:32.758Z,1005.6
2018-09-13T02:35:34.119Z,1005.6
2018-09-13T02:36:35.475Z,1005.6
2018-09-13T02:37:36.832Z,1005.7
2018-09-13T02:38:38.195Z,1005.7
2018-09-13T02:39:39.564Z,1005.7
2018-09-13T02:40:40.913Z,1005.8
2018-09-13T02:41:42.274Z,1005.7
2018-09-13T02:42:43.640Z,1005.7
2018-09-13T02:43:44.999Z,1005.7
2018-09-13T02:44:46.361Z,1005.7
2018-09-13T02:45:47.726Z,1005.7
2018-09-13T02:46:49.085Z,1005.7
2018-09-13T02:47:50.453Z,1005.7
2018-09-13T02:48:51.814Z,1005.7
2018-09-13T02:49:53.175Z,1005.6
2018-09-13T02:50:54.534Z,1005.6
2018-09-13T02:51:55.899Z,1005.6
2018-09-13T02:52:57.266Z,1005.6
2018-09-13T02:53:58.626Z,1005.5
2018-09-13T02:54:59.982Z,1005.5
2018-09-13T02:56:01.339Z,1005.5
2018-09-13T02:57:02.701Z,1005.5
2018-09-13T02:58:04.056Z,1005.5
2018-09-13T02:59:05.425Z,1005.6
2018-09-13T03:00:06.784Z,1005.5
2018-09-13T03:01:08.134Z,1005.6
2018-09-13T03:02:09.502Z,1005.6
2018-09-13T03:03:10.871Z,1005.5
2018-09-13T03:04:12.232Z,1005.5
2018-09-13T03:05:13.594Z,1005.6
2018-09-13T03:06:14.944Z,1005.5
2018-09-13T03:07:16.300Z,1005.6
2018-09-13T03:08:17.675Z,1005.6
2018-09-13T03:09:19.020Z,1005.5
2018-09-13T03:10:20.391Z,1005.5
2018-09-13T03:11:21.751Z,1005.5
2018-09-13T03:12:23.110Z,1005.5
2018-09-13T03:13:24.471Z,1005.5
2018-09-13T03:14:25.837Z,1005.5
2018-09-13T03:15:27.192Z,1005.5
2018-09-13T03:16:28.549Z,1005.5
2018-09-13T03:17:29.906Z,1005.5
2018-09-13T03:18:31.256Z,1005.5
2018-09-13T03:19:32.620Z,1005.5
2018-09-13T03:20:33.993Z,1005.5
2018-09-13T03:21:35.361Z,1005.5
2018-09-13T03:22:36.720Z,1005.5
2018-09-13T03:23:38.073Z,1005.5
2018-09-13T03:24:39.442Z,1005.5
2018-09-13T03:25:40.796Z,1005.5
2018-09-13T03:26:42.144Z,1005.5
2018-09-13T03:27:43.507Z,1005.5
2018-09-13T03:28:44.870Z,1005.5
2018-09-13T03:29:46.234Z,1005.6
2018-09-13T03:30:47.585Z,1005.5
2018-09-13T03:31:48.943Z,1005.5
2018-09-13T03:32:50.295Z,1005.5
2018-09-13T03:33:51.649Z,1005.4
2018-09-13T03:34:53.016Z,1005.5
2018-09-13T03:35:54.366Z,1005.5
2018-09-13T03:36:55.740Z,1005.5
2018-09-13T03:37:57.105Z,1005.5
2018-09-13T03:38:58.461Z,1005.5
2018-09-13T03:39:59.823Z,1005.5
2018-09-13T03:41:01.181Z,1005.5
2018-09-13T03:42:02.570Z,1005.6
2018-09-13T03:43:03.856Z,1005.5
2018-09-13T03:44:05.216Z,1005.5
2018-09-13T03:45:06.584Z,1005.5
2018-09-13T03:46:07.950Z,1005.4
2018-09-13T03:47:09.311Z,1005.4
2018-09-13T03:48:10.665Z,1005.4
2018-09-13T03:49:12.015Z,1005.4
2018-09-13T03:50:13.379Z,1005.4
2018-09-13T03:51:14.740Z,1005.4
2018-09-13T03:52:16.089Z,1005.4
2018-09-13T03:53:17.445Z,1005.5
2018-09-13T03:54:18.810Z,1005.5
2018-09-13T03:55:20.222Z,1005.5
2018-09-13T03:56:21.520Z,1005.4
2018-09-13T03:57:22.881Z,1005.4
2018-09-13T03:58:24.246Z,1005.4
2018-09-13T03:59:25.605Z,1005.4
2018-09-13T04:00:26.956Z,1005.5
2018-09-13T04:01:28.316Z,1005.5
2018-09-13T04:02:29.677Z,1005.5
2018-09-13T04:03:31.158Z,1005.5
2018-09-13T04:04:32.393Z,1005.5
2018-09-13T04:05:33.758Z,1005.5
2018-09-13T04:06:35.115Z,1005.5
2018-09-13T04:07:36.474Z,1005.5
2018-09-13T04:08:37.832Z,1005.6
2018-09-13T04:09:39.197Z,1005.6
2018-09-13T04:10:40.547Z,1005.5
2018-09-13T04:11:41.899Z,1005.5
2018-09-13T04:12:43.261Z,1005.6
2018-09-13T04:13:44.610Z,1005.6
2018-09-13T04:14:45.971Z,1005.5
2018-09-13T04:15:47.336Z,1005.5
2018-09-13T04:16:48.699Z,1005.5
2018-09-13T04:17:50.058Z,1005.5
2018-09-13T04:18:51.446Z,1005.5
2018-09-13T04:19:52.776Z,1005.5
2018-09-13T04:20:54.120Z,1005.5
2018-09-13T04:21:55.476Z,1005.5
2018-09-13T04:22:56.827Z,1005.5
2018-09-13T04:23:58.192Z,1005.5
2018-09-13T04:24:59.551Z,1005.4
2018-09-13T04:26:00.907Z,1005.4
2018-09-13T04:27:02.267Z,1005.4
2018-09-13T04:28:03.616Z,1005.4
2018-09-13T04:29:04.989Z,1005.5
2018-09-13T04:30:06.337Z,1005.5
2018-09-13T04:31:07.706Z,1005.5
2018-09-13T04:32:09.057Z,1005.5
2018-09-13T04:33:10.421Z,1005.5
2018-09-13T04:34:11.786Z,1005.5
2018-09-13T04:35:13.140Z,1005.5
2018-09-13T04:36:14.505Z,1005.5
2018-09-13T04:37:15.863Z,1005.5
2018-09-13T04:38:17.222Z,1005.5
2018-09-13T04:39:18.593Z,1005.5
2018-09-13T04:40:19.952Z,1005.5
2018-09-13T04:41:21.311Z,1005.5
2018-09-13T04:42:22.670Z,1005.5
2018-09-13T04:43:24.025Z,1005.5
2018-09-13T04:44:25.381Z,1005.5
2018-09-13T04:45:26.746Z,1005.5
2018-09-13T04:46:28.105Z,1005.5
2018-09-13T04:47:29.461Z,1005.5
2018-09-13T04:48:30.851Z,1005.6
2018-09-13T04:49:32.212Z,1005.6
2018-09-13T04:50:33.572Z,1005.6
2018-09-13T04:51:34.938Z,1005.6
2018-09-13T04:52:36.295Z,1005.6
2018-09-13T04:53:37.661Z,1005.6
2018-09-13T04:54:39.044Z,1005.6
2018-09-13T04:55:40.402Z,1005.6
2018-09-13T04:56:41.771Z,1005.6
2018-09-13T04:57:43.122Z,1005.7
2018-09-13T04:58:44.487Z,1005.7
2018-09-13T04:59:45.852Z,1005.7
2018-09-13T05:00:47.212Z,1005.6
2018-09-13T05:01:48.576Z,1005.6
2018-09-13T05:02:49.937Z,1005.6
2018-09-13T05:03:51.291Z,1005.6
2018-09-13T05:04:52.652Z,1005.6
2018-09-13T05:05:54.023Z,1005.6
2018-09-13T05:06:55.373Z,1005.6
2018-09-13T05:07:56.728Z,1005.6
2018-09-13T05:08:58.102Z,1005.6
2018-09-13T05:09:59.457Z,1005.6
2018-09-13T05:11:00.820Z,1005.6
2018-09-13T05:12:02.172Z,1005.7
2018-09-13T05:13:03.533Z,1005.7
2018-09-13T05:14:04.897Z,1005.7
2018-09-13T05:15:06.258Z,1005.7
2018-09-13T05:16:07.621Z,1005.7
2018-09-13T05:17:08.992Z,1005.7
2018-09-13T05:18:10.352Z,1005.7
2018-09-13T05:19:11.708Z,1005.7
2018-09-13T05:20:13.062Z,1005.7
2018-09-13T05:21:14.412Z,1005.7
2018-09-13T05:22:15.787Z,1005.7
2018-09-13T05:23:17.146Z,1005.7
2018-09-13T05:24:18.573Z,1005.7
2018-09-13T05:25:19.841Z,1005.7
2018-09-13T05:26:21.206Z,1005.7
2018-09-13T05:27:22.562Z,1005.7
2018-09-13T05:28:23.924Z,1005.7
2018-09-13T05:29:25.307Z,1005.7
2018-09-13T05:30:26.673Z,1005.7
2018-09-13T05:31:28.057Z,1005.7
2018-09-13T05:32:29.393Z,1005.8
2018-09-13T05:33:30.753Z,1005.8
2018-09-13T05:34:32.138Z,1005.8
2018-09-13T05:35:33.483Z,1005.8
2018-09-13T05:36:34.853Z,1005.8
2018-09-13T05:37:36.217Z,1005.8
2018-09-13T05:38:37.578Z,1005.8
2018-09-13T05:39:38.942Z,1005.8
2018-09-13T05:40:40.298Z,1005.8
2018-09-13T05:41:41.669Z,1005.8
2018-09-13T05:42:43.028Z,1005.8
2018-09-13T05:43:44.383Z,1005.8
2018-09-13T05:44:45.818Z,1005.8
2018-09-13T05:45:47.137Z,1005.8
2018-09-13T05:46:48.508Z,1005.8
2018-09-13T05:47:49.884Z,1005.8
2018-09-13T05:48:51.457Z,1005.9
2018-09-13T05:49:52.815Z,1005.8
2018-09-13T05:50:54.186Z,1005.8
2018-09-13T05:51:55.577Z,1005.8
2018-09-13T05:52:56.933Z,1005.8
2018-09-13T05:53:58.304Z,1005.8
2018-09-13T05:54:59.688Z,1005.8
2018-09-13T05:56:01.064Z,1005.8
2018-09-13T05:57:02.428Z,1005.8
2018-09-13T05:58:03.787Z,1005.8
2018-09-13T05:59:05.166Z,1005.8
2018-09-13T06:00:06.537Z,1005.8
2018-09-13T06:01:07.893Z,1005.8
2018-09-13T06:02:09.292Z,1005.8
2018-09-13T06:03:10.662Z,1005.9
2018-09-13T06:04:12.022Z,1005.8
2018-09-13T06:05:13.387Z,1005.8
2018-09-13T06:06:14.753Z,1005.9
2018-09-13T06:07:16.117Z,1005.9
2018-09-13T06:08:17.483Z,1005.9
2018-09-13T06:09:18.836Z,1005.9
2018-09-13T06:10:20.202Z,1005.9
2018-09-13T06:11:21.575Z,1005.9
2018-09-13T06:12:23.016Z,1005.9
2018-09-13T06:13:24.836Z,1005.9
2018-09-13T06:14:26.178Z,1005.9
2018-09-13T06:15:27.537Z,1005.9
2018-09-13T06:16:28.901Z,1005.9
2018-09-13T06:17:30.272Z,1005.9
2018-09-13T06:18:31.639Z,1005.9
2018-09-13T06:19:33.042Z,1005.9
2018-09-13T06:20:34.357Z,1005.9
2018-09-13T06:21:35.719Z,1005.9
2018-09-13T06:22:37.083Z,1005.9
2018-09-13T06:23:38.453Z,1005.9
2018-09-13T06:24:39.816Z,1006.0
2018-09-13T06:25:41.181Z,1006.0
2018-09-13T06:26:42.552Z,1006.0
2018-09-13T06:27:43.917Z,1006.0
2018-09-13T06:28:45.278Z,1006.0
2018-09-13T06:29:46.667Z,1006.0
2018-09-13T06:30:48.037Z,1006.0
2018-09-13T06:31:49.401Z,1006.0
2018-09-13T06:32:50.757Z,1006.1
2018-09-13T06:33:52.144Z,1006.1
2018-09-13T06:34:53.503Z,1006.1
2018-09-13T06:35:54.963Z,1006.1
2018-09-13T06:36:56.336Z,1006.2
2018-09-13T06:37:57.698Z,1006.2
2018-09-13T06:38:59.086Z,1006.2
2018-09-13T06:40:00.454Z,1006.2
2018-09-13T06:41:01.830Z,1006.2
2018-09-13T06:42:03.193Z,1006.2
2018-09-13T06:43:04.573Z,1006.2
2018-09-13T06:44:05.927Z,1006.2
2018-09-13T06:45:07.284Z,1006.2
2018-09-13T06:46:08.654Z,1006.2
2018-09-13T06:47:10.029Z,1006.2
2018-09-13T06:48:11.388Z,1006.2
2018-09-13T06:49:12.762Z,1006.2
2018-09-13T06:50:14.127Z,1006.1
2018-09-13T06:51:15.494Z,1006.1
2018-09-13T06:52:16.867Z,1006.1
2018-09-13T06:53:18.237Z,1006.1
2018-09-13T06:54:19.607Z,1006.1
2018-09-13T06:55:20.965Z,1006.1
2018-09-13T06:56:22.343Z,1006.1
2018-09-13T06:57:23.837Z,1006.1
2018-09-13T06:58:25.823Z,1006.2
2018-09-13T06:59:27.193Z,1006.2
2018-09-13T07:00:28.563Z,1006.2
2018-09-13T07:01:29.934Z,1006.2
2018-09-13T07:02:31.348Z,1006.2
2018-09-13T07:03:32.683Z,1006.2
2018-09-13T07:04:34.053Z,1006.2
2018-09-13T07:05:35.408Z,1006.2
2018-09-13T07:06:36.779Z,1006.2
2018-09-13T07:07:38.154Z,1006.1
2018-09-13T07:08:39.524Z,1006.1
2018-09-13T07:09:40.889Z,1006.1
2018-09-13T07:10:42.269Z,1006.2
2018-09-13T07:11:43.637Z,1006.2
2018-09-13T07:12:45.007Z,1006.2
2018-09-13T07:13:46.372Z,1006.2
2018-09-13T07:14:47.738Z,1006.2
2018-09-13T07:15:49.193Z,1006.2
2018-09-13T07:16:50.567Z,1006.2
2018-09-13T07:17:51.933Z,1006.2
2018-09-13T07:18:53.303Z,1006.1
2018-09-13T07:19:54.669Z,1006.2
2018-09-13T07:20:56.042Z,1006.2
2018-09-13T07:21:57.442Z,1006.2
2018-09-13T07:22:58.821Z,1006.1
2018-09-13T07:24:00.196Z,1006.2
2018-09-13T07:25:01.579Z,1006.2
2018-09-13T07:26:02.943Z,1006.2
2018-09-13T07:27:04.309Z,1006.2
2018-09-13T07:28:05.672Z,1006.3
2018-09-13T07:29:07.038Z,1006.3
2018-09-13T07:30:08.409Z,1006.3
2018-09-13T07:31:09.792Z,1006.3
2018-09-13T07:32:11.161Z,1006.3
2018-09-13T07:33:12.542Z,1006.3
2018-09-13T07:34:13.930Z,1006.3
2018-09-13T07:35:15.295Z,1006.4
2018-09-13T07:36:16.666Z,1006.3
2018-09-13T07:37:18.043Z,1006.3
2018-09-13T07:38:19.399Z,1006.3
2018-09-13T07:39:20.791Z,1006.3
2018-09-13T07:40:22.147Z,1006.3
2018-09-13T07:41:23.519Z,1006.4
2018-09-13T07:42:24.911Z,1006.3
2018-09-13T07:43:26.212Z,1006.3
2018-09-13T07:44:27.611Z,1006.2
2018-09-13T07:45:28.974Z,1006.2
2018-09-13T07:46:30.354Z,1006.2
2018-09-13T07:47:31.730Z,1006.3
2018-09-13T07:48:33.089Z,1006.3
2018-09-13T07:49:34.497Z,1006.3
2018-09-13T07:50:35.827Z,1006.3
2018-09-13T07:51:37.202Z,1006.3
2018-09-13T07:52:38.584Z,1006.3
2018-09-13T07:53:39.968Z,1006.3
2018-09-13T07:54:41.352Z,1006.3
2018-09-13T07:55:42.779Z,1006.4
2018-09-13T07:56:44.083Z,1006.4
2018-09-13T07:57:45.433Z,1006.3
2018-09-13T07:58:46.809Z,1006.4
2018-09-13T07:59:48.179Z,1006.5
2018-09-13T08:00:49.558Z,1006.5
2018-09-13T08:01:50.933Z,1006.5
2018-09-13T08:02:52.311Z,1006.6
2018-09-13T08:03:53.679Z,1006.5
2018-09-13T08:04:55.100Z,1006.5
2018-09-13T08:05:56.429Z,1006.6
2018-09-13T08:06:57.803Z,1006.6
2018-09-13T08:07:59.184Z,1006.6
2018-09-13T08:09:00.572Z,1006.6
2018-09-13T08:10:01.934Z,1006.5
2018-09-13T08:11:03.302Z,1006.6
2018-09-13T08:12:04.774Z,1006.6
2018-09-13T08:13:06.021Z,1006.7
2018-09-13T08:14:07.401Z,1006.6
2018-09-13T08:15:08.763Z,1006.6
2018-09-13T08:16:10.134Z,1006.6
2018-09-13T08:17:11.503Z,1006.6
2018-09-13T08:18:12.869Z,1006.6
2018-09-13T08:19:14.234Z,1006.7
2018-09-13T08:20:15.608Z,1006.8
2018-09-13T08:21:17.095Z,1006.8
2018-09-13T08:22:18.309Z,1006.9
2018-09-13T08:23:19.685Z,1006.9
2018-09-13T08:24:21.038Z,1007.0
2018-09-13T08:25:22.412Z,1006.9
2018-09-13T08:26:23.778Z,1006.9
2018-09-13T08:27:25.895Z,1006.8
2018-09-13T08:28:27.273Z,1006.8
2018-09-13T08:29:28.664Z,1006.8
2018-09-13T08:30:30.074Z,1006.8
2018-09-13T08:31:31.445Z,1006.7
2018-09-13T08:32:32.804Z,1006.7
2018-09-13T08:33:34.179Z,1006.6
2018-09-13T08:34:35.594Z,1006.7
2018-09-13T08:35:36.932Z,1006.6
2018-09-13T08:36:38.307Z,1006.6
2018-09-13T08:37:39.697Z,1006.6
2018-09-13T08:38:41.069Z,1006.6
2018-09-13T08:39:42.507Z,1006.7
2018-09-13T08:40:44.169Z,1006.7
2018-09-13T08:41:45.535Z,1006.7
2018-09-13T08:42:46.904Z,1006.8
2018-09-13T08:43:48.282Z,1006.8
2018-09-13T08:44:49.654Z,1006.8
2018-09-13T08:45:51.067Z,1006.8
2018-09-13T08:46:52.429Z,1006.8
2018-09-13T08:47:53.799Z,1006.9
2018-09-13T08:48:55.255Z,1006.9
2018-09-13T08:49:56.632Z,1007.0
2018-09-13T08:50:58.013Z,1007.0
2018-09-13T08:51:59.385Z,1007.0
2018-09-13T08:53:00.749Z,1007.0
2018-09-13T08:54:02.118Z,1007.0
2018-09-13T08:55:03.554Z,1007.0
2018-09-13T08:56:04.838Z,1007.0
2018-09-13T08:57:06.205Z,1007.0
2018-09-13T08:58:07.574Z,1007.0
2018-09-13T08:59:08.963Z,1007.0
2018-09-13T09:00:10.321Z,1007.1
2018-09-13T09:01:11.749Z,1007.1
2018-09-13T09:02:13.113Z,1007.2
2018-09-13T09:03:14.498Z,1007.2
2018-09-13T09:04:15.865Z,1007.2
2018-09-13T09:05:17.247Z,1007.3
2018-09-13T09:06:18.708Z,1007.4
2018-09-13T09:07:20.039Z,1007.3
2018-09-13T09:08:21.413Z,1007.3
2018-09-13T09:09:22.777Z,1007.2
2018-09-13T09:10:24.159Z,1007.2
2018-09-13T09:11:25.563Z,1007.2
2018-09-13T09:12:26.958Z,1007.1
2018-09-13T09:13:28.327Z,1007.1
2018-09-13T09:14:29.747Z,1007.1
2018-09-13T09:15:31.114Z,1007.1
2018-09-13T09:16:32.612Z,1007.1
2018-09-13T09:17:33.939Z,1007.2
2018-09-13T09:18:35.385Z,1007.1
2018-09-13T09:19:36.650Z,1007.1
2018-09-13T09:20:38.062Z,1007.1
2018-09-13T09:21:39.427Z,1007.2
2018-09-13T09:22:40.803Z,1007.2
2018-09-13T09:23:42.197Z,1007.2
2018-09-13T09:24:43.573Z,1007.2
2018-09-13T09:25:45.094Z,1007.3
2018-09-13T09:26:46.469Z,1007.3
2018-09-13T09:27:47.849Z,1007.3
2018-09-13T09:28:49.258Z,1007.3
2018-09-13T09:29:50.643Z,1007.3
2018-09-13T09:30:51.946Z,1007.4
2018-09-13T09:31:53.312Z,1007.4
2018-09-13T09:32:54.693Z,1007.5
2018-09-13T09:33:56.074Z,1007.6
2018-09-13T09:34:57.645Z,1007.4
2018-09-13T09:35:58.949Z,1007.3
2018-09-13T09:37:00.329Z,1007.4
2018-09-13T09:38:01.722Z,1007.5
2018-09-13T09:39:03.090Z,1007.7
2018-09-13T09:40:04.480Z,1007.4
2018-09-13T09:41:06.173Z,1007.4
2018-09-13T09:42:07.568Z,1007.6
2018-09-13T09:43:08.944Z,1007.4
2018-09-13T09:44:10.356Z,1007.4
2018-09-13T09:45:11.698Z,1007.1
2018-09-13T09:46:13.092Z,1007.2
2018-09-13T09:47:14.470Z,1007.2
2018-09-13T09:48:15.930Z,1007.2
2018-09-13T09:49:17.195Z,1007.3
2018-09-13T09:50:18.582Z,1007.3
2018-09-13T09:51:19.969Z,1007.2
2018-09-13T09:52:21.377Z,1007.2
2018-09-13T09:53:22.735Z,1007.2
2018-09-13T09:54:24.117Z,1007.2
2018-09-13T09:55:25.524Z,1007.3
2018-09-13T09:56:26.930Z,1007.3
2018-09-13T09:57:28.365Z,1007.2
2018-09-13T09:58:29.739Z,1007.2
2018-09-13T09:59:31.119Z,1007.3
2018-09-13T10:00:32.499Z,1007.2
2018-09-13T10:01:33.879Z,1007.2
2018-09-13T10:02:35.306Z,1007.2
2018-09-13T10:03:36.683Z,1007.2
2018-09-13T10:04:38.105Z,1007.2
2018-09-13T10:05:39.408Z,1007.2
2018-09-13T10:06:40.796Z,1007.2
2018-09-13T10:07:42.209Z,1007.1
2018-09-13T10:08:43.596Z,1007.1
2018-09-13T10:09:45.019Z,1007.2
2018-09-13T10:10:46.345Z,1007.1
2018-09-13T10:11:47.743Z,1007.1
2018-09-13T10:12:49.119Z,1007.1
2018-09-13T10:13:50.560Z,1007.1
2018-09-13T10:14:51.944Z,1007.2
2018-09-13T10:15:53.325Z,1007.2
2018-09-13T10:16:54.690Z,1007.1
2018-09-13T10:17:56.089Z,1007.1
2018-09-13T10:18:57.475Z,1007.1
2018-09-13T10:19:58.860Z,1007.0
2018-09-13T10:21:00.242Z,1007.0
2018-09-13T10:22:01.627Z,1007.0
2018-09-13T10:23:03.075Z,1007.1
2018-09-13T10:24:04.384Z,1007.0
2018-09-13T10:25:05.764Z,1007.0
2018-09-13T10:26:07.152Z,1007.1
2018-09-13T10:27:08.524Z,1007.1
2018-09-13T10:28:09.934Z,1007.1
2018-09-13T10:29:11.331Z,1007.0
2018-09-13T10:30:12.684Z,1007.0
2018-09-13T10:31:14.078Z,1007.0
2018-09-13T10:32:15.468Z,1007.1
2018-09-13T10:33:16.849Z,1007.0
2018-09-13T10:34:18.215Z,1007.0
2018-09-13T10:35:19.609Z,1007.0
2018-09-13T10:36:20.998Z,1006.9
2018-09-13T10:37:22.374Z,1006.9
2018-09-13T10:38:23.745Z,1006.9
2018-09-13T10:39:25.126Z,1006.9
2018-09-13T10:40:26.515Z,1006.8
2018-09-13T10:41:27.908Z,1006.8
2018-09-13T10:42:29.265Z,1006.8
2018-09-13T10:43:30.639Z,1006.9
2018-09-13T10:44:32.008Z,1006.8
2018-09-13T10:45:33.384Z,1006.8
2018-09-13T10:46:34.770Z,1006.8
2018-09-13T10:47:36.227Z,1006.8
2018-09-13T10:48:37.511Z,1006.9
2018-09-13T10:49:38.895Z,1006.9
2018-09-13T10:50:40.300Z,1006.9
2018-09-13T10:51:41.685Z,1006.8
2018-09-13T10:52:43.091Z,1006.8
2018-09-13T10:53:44.435Z,1006.8
2018-09-13T10:54:45.804Z,1006.8
2018-09-13T10:55:47.225Z,1006.8
2018-09-13T10:56:48.558Z,1006.9
2018-09-13T10:57:49.925Z,1006.9
2018-09-13T10:58:51.331Z,1006.8
2018-09-13T10:59:52.759Z,1006.8
2018-09-13T11:00:54.134Z,1006.8
2018-09-13T11:01:55.512Z,1006.7
2018-09-13T11:02:56.897Z,1006.8
2018-09-13T11:03:58.340Z,1006.7
2018-09-13T11:04:59.726Z,1006.7
2018-09-13T11:06:01.111Z,1006.6
2018-09-13T11:07:02.500Z,1006.7
2018-09-13T11:08:03.871Z,1006.7
2018-09-13T11:09:05.244Z,1006.8
2018-09-13T11:10:06.621Z,1006.8
2018-09-13T11:11:08.100Z,1006.9
2018-09-13T11:12:09.326Z,1006.9
2018-09-13T11:13:10.699Z,1007.0
2018-09-13T11:14:12.079Z,1006.9
2018-09-13T11:15:13.459Z,1007.0
2018-09-13T11:16:14.841Z,1006.9
2018-09-13T11:17:16.206Z,1006.9
2018-09-13T11:18:17.579Z,1006.9
2018-09-13T11:19:18.956Z,1006.9
2018-09-13T11:20:20.319Z,1007.0
2018-09-13T11:21:21.704Z,1007.0
2018-09-13T11:22:23.089Z,1006.9
2018-09-13T11:23:24.449Z,1007.0
2018-09-13T11:24:25.860Z,1006.9
2018-09-13T11:25:27.181Z,1006.9
2018-09-13T11:26:28.564Z,1006.9
2018-09-13T11:27:29.941Z,1006.9
2018-09-13T11:28:31.333Z,1006.9
2018-09-13T11:29:32.715Z,1006.9
2018-09-13T11:30:34.131Z,1006.9
2018-09-13T11:31:35.460Z,1006.9
2018-09-13T11:32:36.831Z,1006.8
2018-09-13T11:33:38.211Z,1006.9
2018-09-13T11:34:39.591Z,1006.8
2018-09-13T11:35:40.975Z,1006.7
2018-09-13T11:36:42.339Z,1006.7
2018-09-13T11:37:43.726Z,1006.7
2018-09-13T11:38:45.099Z,1006.7
2018-09-13T11:39:46.521Z,1006.8
2018-09-13T11:40:48.066Z,1006.7
2018-09-13T11:41:49.249Z,1006.8
2018-09-13T11:42:50.614Z,1006.7
2018-09-13T11:43:52.036Z,1006.7
2018-09-13T11:44:53.431Z,1006.6
2018-09-13T11:45:54.837Z,1006.7
2018-09-13T11:46:56.215Z,1006.7
2018-09-13T11:47:57.596Z,1006.7
2018-09-13T11:49:02.317Z,1006.6
2018-09-13T11:50:03.699Z,1006.6
2018-09-13T11:51:05.074Z,1006.6
2018-09-13T11:52:06.469Z,1006.5
2018-09-13T11:53:07.845Z,1006.5
2018-09-13T11:54:09.251Z,1006.5
2018-09-13T11:55:10.588Z,1006.5
2018-09-13T11:56:11.959Z,1006.5
2018-09-13T11:57:13.348Z,1006.6
2018-09-13T11:58:14.739Z,1006.6
2018-09-13T11:59:16.104Z,1006.6
2018-09-13T12:00:17.483Z,1006.6
2018-09-13T12:01:18.917Z,1006.6
2018-09-13T12:02:20.201Z,1006.6
2018-09-13T12:03:21.567Z,1006.6
2018-09-13T12:04:22.937Z,1006.5
2018-09-13T12:05:24.320Z,1006.5
2018-09-13T12:06:25.694Z,1006.5
2018-09-13T12:07:27.065Z,1006.5
2018-09-13T12:08:28.447Z,1006.4
2018-09-13T12:09:29.884Z,1006.4
2018-09-13T12:10:31.160Z,1006.4
2018-09-13T12:11:32.529Z,1006.4
2018-09-13T12:12:33.934Z,1006.5
2018-09-13T12:13:35.297Z,1006.5
2018-09-13T12:14:36.672Z,1006.5
2018-09-13T12:15:38.041Z,1006.5
2018-09-13T12:16:39.401Z,1006.5
2018-09-13T12:17:40.790Z,1006.5
2018-09-13T12:18:42.285Z,1006.5
2018-09-13T12:19:43.671Z,1006.4
2018-09-13T12:20:45.042Z,1006.4
2018-09-13T12:21:46.417Z,1006.4
2018-09-13T12:22:47.812Z,1006.4
2018-09-13T12:23:49.179Z,1006.4
2018-09-13T12:24:50.551Z,1006.4
2018-09-13T12:25:51.926Z,1006.4
2018-09-13T12:26:53.304Z,1006.4
2018-09-13T12:27:54.686Z,1006.4
2018-09-13T12:28:56.065Z,1006.4
2018-09-13T12:29:57.434Z,1006.4
2018-09-13T12:30:58.802Z,1006.4
2018-09-13T12:32:00.183Z,1006.3
2018-09-13T12:33:01.590Z,1006.3
2018-09-13T12:34:02.976Z,1006.2
2018-09-13T12:35:04.378Z,1006.3
2018-09-13T12:36:05.740Z,1006.3
2018-09-13T12:37:07.101Z,1006.3
2018-09-13T12:38:08.490Z,1006.3
2018-09-13T12:39:09.864Z,1006.3
2018-09-13T12:40:11.236Z,1006.3
2018-09-13T12:41:12.601Z,1006.3
2018-09-13T12:42:14.012Z,1006.3
2018-09-13T12:43:15.381Z,1006.2
2018-09-13T12:44:16.778Z,1006.2
2018-09-13T12:45:57.633Z,1006.3
2018-09-13T12:46:58.995Z,1006.4